Terminal Aerodrome Forecast
Issued by NWS

Current Version | Previous Version | Text Only | Print | Product List | Glossary On
Versions: 1 2 3 4 5 6 7 8 9 10 11 12 13 14
000
FTUS45 KPIH 040520
TAFSUN
TAF
KSUN 040520Z 0406/0506 31008KT P6SM VCSH SCT070 BKN100
     FM041700 15007KT P6SM VCTS SCT050 BKN090CB
     FM050400 VRB06KT P6SM VCSH SCT090 BKN120
      AMD LTD TO CLD VIS AND WIND TIL 041300=

USA.gov is the U.S. government's official web portal to all federal, state and local government web resources and services.